Time;durP1;ratioP1;P1;durP2;ratioP2;P2;SDS_P1;SDS_P2;PMS_P1;PMS_P2;Temp;Humidity;BMP_temperature;BMP_pressure;BME280_temperature;BME280_humidity;BME280_pressure;Samples;Min_cycle;Max_cycle;Signal;HPM_P1;HPM_P2
2021/04/20 00:02:06;;;;;;;4.78;4.38;;;;;;;;;;5055561;28;20195;-44
2021/04/20 00:04:32;;;;;;;4.60;4.20;;;;;;;;;;5074710;28;20224;-44
2021/04/20 00:06:58;;;;;;;4.75;4.35;;;;;;;;;;5075888;28;20167;-44
2021/04/20 00:09:24;;;;;;;5.10;4.63;;;;;;;;;;5067973;28;20190;-44
2021/04/20 00:11:50;;;;;;;6.82;5.22;;;;;;;;;;5066351;28;20236;-44
2021/04/20 00:14:16;;;;;;;5.32;4.82;;;;;;;;;;5064444;28;20179;-44
2021/04/20 00:16:42;;;;;;;5.03;4.63;;;;;;;;;;5069751;28;20573;-44
2021/04/20 00:19:08;;;;;;;5.20;4.78;;;;;;;;;;5055415;28;20574;-44
2021/04/20 00:21:35;;;;;;;5.10;4.68;;;;;;;;;;5056869;28;20265;-44
2021/04/20 00:24:01;;;;;;;4.93;4.50;;;;;;;;;;5055292;28;20182;-44
2021/04/20 00:26:27;;;;;;;4.82;4.43;;;;;;;;;;5055695;28;20194;-44
2021/04/20 00:28:53;;;;;;;5.10;4.60;;;;;;;;;;5066494;28;20590;-44
2021/04/20 00:31:19;;;;;;;4.90;4.50;;;;;;;;;;5054975;28;20206;-44
2021/04/20 00:33:45;;;;;;;5.50;5.00;;;;;;;;;;5056630;28;20504;-44
2021/04/20 00:36:12;;;;;;;4.90;4.50;;;;;;;;;;5073321;28;20718;-44
2021/04/20 00:38:38;;;;;;;4.85;4.45;;;;;;;;;;5074613;28;20186;-44
2021/04/20 00:41:09;;;;;;;4.90;4.50;;;;;;;;;;5074417;28;20198;-44
2021/04/20 00:43:36;;;;;;;5.03;4.60;;;;;;;;;;5062121;28;20186;-44
2021/04/20 00:46:02;;;;;;;5.38;4.88;;;;;;;;;;5074391;28;20596;-44
2021/04/20 00:48:28;;;;;;;4.63;4.22;;;;;;;;;;5065933;28;20187;-44
2021/04/20 00:50:54;;;;;;;4.65;4.25;;;;;;;;;;5057826;28;20597;-44
2021/04/20 00:53:20;;;;;;;4.85;4.45;;;;;;;;;;5070362;28;20190;-44
2021/04/20 00:55:46;;;;;;;4.63;4.30;;;;;;;;;;5062999;28;20187;-44
2021/04/20 00:58:12;;;;;;;4.70;4.30;;;;;;;;;;5062546;28;20202;-44
2021/04/20 01:00:39;;;;;;;4.53;4.22;;;;;;;;;;5061787;28;20194;-44
2021/04/20 01:03:05;;;;;;;5.03;4.63;;;;;;;;;;5074061;28;20171;-44
2021/04/20 01:05:32;;;;;;;4.90;4.47;;;;;;;;;;5074773;28;20183;-44
2021/04/20 01:07:59;;;;;;;5.18;4.68;;;;;;;;;;5064287;28;20175;-44
2021/04/20 01:10:27;;;;;;;5.30;4.80;;;;;;;;;;5054625;28;20482;-44
2021/04/20 01:12:53;;;;;;;4.80;4.40;;;;;;;;;;5063606;28;20178;-44
2021/04/20 01:15:19;;;;;;;4.35;4.00;;;;;;;;;;5067167;28;20196;-44
2021/04/20 01:17:45;;;;;;;5.30;4.68;;;;;;;;;;5072251;28;20646;-44
2021/04/20 01:20:12;;;;;;;4.90;4.50;;;;;;;;;;5074893;28;20166;-44
2021/04/20 01:22:40;;;;;;;5.03;4.63;;;;;;;;;;5073955;28;20166;-44
2021/04/20 01:25:07;;;;;;;5.13;4.72;;;;;;;;;;5062946;28;20480;-44
2021/04/20 01:27:33;;;;;;;4.85;4.35;;;;;;;;;;5067270;28;20472;-44
2021/04/20 01:30:00;;;;;;;4.78;4.38;;;;;;;;;;5055709;28;20183;-44
2021/04/20 01:32:27;;;;;;;5.13;4.72;;;;;;;;;;5054252;28;20220;-44
2021/04/20 01:34:53;;;;;;;4.78;4.38;;;;;;;;;;5054693;28;20164;-44
2021/04/20 01:37:19;;;;;;;5.15;4.65;;;;;;;;;;5063735;28;20182;-44
2021/04/20 01:39:49;;;;;;;4.90;4.50;;;;;;;;;;5070793;28;20178;-44
2021/04/20 01:42:16;;;;;;;4.60;4.20;;;;;;;;;;5066846;28;20178;-44
2021/04/20 01:44:42;;;;;;;4.95;4.45;;;;;;;;;;5054394;28;20175;-44
2021/04/20 01:47:09;;;;;;;4.85;4.45;;;;;;;;;;5061071;28;20179;-44
2021/04/20 01:49:36;;;;;;;5.50;5.00;;;;;;;;;;5057802;28;20194;-44
2021/04/20 01:52:03;;;;;;;5.38;4.88;;;;;;;;;;5063988;28;20197;-44
2021/04/20 01:54:29;;;;;;;4.93;4.53;;;;;;;;;;5057777;28;20204;-44
2021/04/20 01:56:55;;;;;;;4.95;4.55;;;;;;;;;;5064607;28;20183;-44
2021/04/20 01:59:22;;;;;;;4.93;4.53;;;;;;;;;;5065698;28;20923;-44
2021/04/20 02:01:48;;;;;;;5.13;4.63;;;;;;;;;;5061395;28;20500;-44
2021/04/20 02:04:15;;;;;;;4.32;3.95;;;;;;;;;;5057249;28;20443;-44
2021/04/20 02:06:41;;;;;;;4.60;4.20;;;;;;;;;;5064984;28;20175;-44
2021/04/20 02:09:08;;;;;;;4.82;4.43;;;;;;;;;;5059764;28;20184;-44
2021/04/20 02:11:34;;;;;;;4.95;4.55;;;;;;;;;;5058848;28;20182;-44
2021/04/20 02:14:01;;;;;;;5.20;4.80;;;;;;;;;;5075057;28;20206;-44
2021/04/20 02:16:27;;;;;;;5.38;4.88;;;;;;;;;;5077528;28;20565;-44
2021/04/20 02:19:00;;;;;;;4.75;4.35;;;;;;;;;;5077932;28;20464;-44
2021/04/20 02:21:26;;;;;;;5.05;4.53;;;;;;;;;;5072322;28;20250;-44
2021/04/20 02:23:52;;;;;;;5.40;4.90;;;;;;;;;;5057685;28;20183;-44
2021/04/20 02:26:19;;;;;;;4.88;4.43;;;;;;;;;;5061719;28;20175;-44
2021/04/20 02:28:45;;;;;;;5.05;4.65;;;;;;;;;;5065471;28;20194;-44
2021/04/20 02:31:11;;;;;;;5.20;4.80;;;;;;;;;;5076848;28;20197;-44
2021/04/20 02:33:38;;;;;;;5.68;4.18;;;;;;;;;;5065922;28;20202;-44
2021/04/20 02:36:04;;;;;;;4.88;4.47;;;;;;;;;;5063158;28;20216;-44
2021/04/20 02:38:31;;;;;;;4.63;4.28;;;;;;;;;;5070143;28;20233;-44
2021/04/20 02:40:59;;;;;;;4.68;4.28;;;;;;;;;;5075872;28;20214;-44
2021/04/20 02:43:25;;;;;;;5.07;4.65;;;;;;;;;;5064534;28;20192;-44
2021/04/20 02:45:55;;;;;;;5.18;4.75;;;;;;;;;;5071743;28;20221;-44
2021/04/20 02:48:21;;;;;;;4.85;4.45;;;;;;;;;;5057170;28;20199;-44
2021/04/20 02:50:48;;;;;;;5.05;4.55;;;;;;;;;;5065790;28;20215;-44
2021/04/20 02:53:16;;;;;;;4.80;4.40;;;;;;;;;;5075025;28;20261;-44
2021/04/20 02:55:42;;;;;;;5.60;5.07;;;;;;;;;;5070275;28;20218;-44
2021/04/20 02:58:14;;;;;;;5.03;4.63;;;;;;;;;;5065454;28;20195;-44
2021/04/20 03:00:41;;;;;;;5.13;4.65;;;;;;;;;;5056433;28;20191;-44
2021/04/20 03:03:07;;;;;;;4.80;4.40;;;;;;;;;;5056979;28;20210;-44
2021/04/20 03:05:34;;;;;;;4.68;4.22;;;;;;;;;;5073873;28;20210;-44
2021/04/20 03:08:00;;;;;;;5.32;4.68;;;;;;;;;;5057573;28;20191;-44
2021/04/20 03:10:26;;;;;;;5.10;4.70;;;;;;;;;;5056757;28;20261;-44
2021/04/20 03:12:52;;;;;;;5.13;4.72;;;;;;;;;;5065347;28;20179;-44
2021/04/20 03:15:19;;;;;;;4.60;4.20;;;;;;;;;;5073541;28;20186;-44
2021/04/20 03:17:46;;;;;;;5.10;4.60;;;;;;;;;;5059618;28;20213;-44
2021/04/20 03:20:12;;;;;;;4.60;4.20;;;;;;;;;;5076833;28;20245;-44
2021/04/20 03:22:42;;;;;;;4.72;4.32;;;;;;;;;;5070834;28;20185;-44
2021/04/20 03:25:11;;;;;;;4.82;4.43;;;;;;;;;;5072850;28;20187;-44
2021/04/20 03:27:39;;;;;;;4.55;4.15;;;;;;;;;;5066498;28;20504;-44
2021/04/20 03:30:05;;;;;;;5.13;4.65;;;;;;;;;;5061259;28;20183;-44
2021/04/20 03:32:31;;;;;;;4.57;4.18;;;;;;;;;;5063652;28;20217;-44
2021/04/20 03:35:00;;;;;;;4.88;4.47;;;;;;;;;;5076481;28;20444;-44
2021/04/20 03:37:43;;;;;;;4.80;4.40;;;;;;;;;;5062185;28;20198;-44
2021/04/20 03:40:11;;;;;;;4.72;4.32;;;;;;;;;;5062960;28;20185;-44
2021/04/20 03:42:41;;;;;;;4.28;3.97;;;;;;;;;;5066103;28;20175;-44
2021/04/20 03:45:16;;;;;;;4.63;4.22;;;;;;;;;;5071211;28;20187;-44
2021/04/20 03:47:43;;;;;;;5.22;4.72;;;;;;;;;;5056115;28;20171;-44
2021/04/20 03:50:13;;;;;;;5.07;4.60;;;;;;;;;;5057369;28;20183;-44
2021/04/20 03:52:43;;;;;;;4.30;3.90;;;;;;;;;;5059835;28;20224;-44
2021/04/20 03:55:09;;;;;;;4.60;4.20;;;;;;;;;;5075567;28;20261;-44
2021/04/20 03:57:35;;;;;;;4.20;3.90;;;;;;;;;;5063541;28;20200;-44
2021/04/20 04:00:02;;;;;;;4.93;4.28;;;;;;;;;;5061703;28;20183;-44
2021/04/20 04:02:30;;;;;;;5.10;4.60;;;;;;;;;;5072802;28;20226;-44
2021/04/20 04:04:58;;;;;;;4.28;3.97;;;;;;;;;;5070770;28;20179;-44
2021/04/20 04:07:24;;;;;;;4.05;3.75;;;;;;;;;;5055667;28;20551;-44
2021/04/20 04:09:51;;;;;;;4.70;4.30;;;;;;;;;;5055759;28;20182;-44
2021/04/20 04:12:18;;;;;;;4.55;4.18;;;;;;;;;;5068931;28;20201;-44
2021/04/20 04:14:47;;;;;;;4.93;4.53;;;;;;;;;;5063643;28;20175;-44
2021/04/20 04:17:15;;;;;;;4.88;4.40;;;;;;;;;;5056404;28;20282;-44
2021/04/20 04:19:43;;;;;;;4.57;4.18;;;;;;;;;;5055422;28;20202;-44
2021/04/20 04:22:11;;;;;;;5.40;4.90;;;;;;;;;;5054596;28;20179;-44
2021/04/20 04:24:49;;;;;;;4.68;4.28;;;;;;;;;;5058768;28;20179;-44
2021/04/20 04:27:16;;;;;;;5.28;4.80;;;;;;;;;;5066758;28;20513;-44
2021/04/20 04:29:43;;;;;;;4.95;4.55;;;;;;;;;;5064858;28;20300;-44
2021/04/20 04:32:12;;;;;;;4.57;4.18;;;;;;;;;;5074921;28;20171;-44
2021/04/20 04:34:40;;;;;;;5.07;4.35;;;;;;;;;;5057294;28;20183;-44
2021/04/20 04:37:06;;;;;;;4.80;4.30;;;;;;;;;;5072421;28;20190;-44
2021/04/20 04:39:33;;;;;;;4.90;4.50;;;;;;;;;;5064437;28;20207;-44
2021/04/20 04:41:59;;;;;;;4.90;4.50;;;;;;;;;;5063519;28;20257;-44
2021/04/20 04:44:26;;;;;;;5.30;4.80;;;;;;;;;;5064421;28;20250;-44
2021/04/20 04:46:52;;;;;;;4.45;4.10;;;;;;;;;;5074266;28;20203;-44
2021/04/20 04:49:18;;;;;;;4.85;4.45;;;;;;;;;;5073993;28;20285;-44
2021/04/20 04:51:47;;;;;;;4.60;4.20;;;;;;;;;;5055475;28;20608;-44
2021/04/20 04:54:14;;;;;;;5.47;4.20;;;;;;;;;;5055952;28;20197;-44
2021/04/20 04:56:41;;;;;;;4.57;4.18;;;;;;;;;;5064429;28;20178;-44
2021/04/20 04:59:07;;;;;;;4.65;4.25;;;;;;;;;;5073154;28;20630;-44
2021/04/20 05:01:36;;;;;;;4.90;4.15;;;;;;;;;;5067793;28;20256;-44
2021/04/20 05:04:06;;;;;;;6.68;4.28;;;;;;;;;;5054746;28;20181;-44
2021/04/20 05:06:34;;;;;;;5.35;4.22;;;;;;;;;;5062376;28;20577;-43
2021/04/20 05:09:00;;;;;;;6.07;4.63;;;;;;;;;;5068457;28;20711;-41
2021/04/20 05:11:26;;;;;;;7.18;4.80;;;;;;;;;;5069182;28;20183;-41
2021/04/20 05:13:52;;;;;;;6.20;5.00;;;;;;;;;;5065597;28;20229;-41
2021/04/20 05:16:19;;;;;;;11.60;5.60;;;;;;;;;;5063674;28;20182;-41
2021/04/20 05:18:45;;;;;;;9.52;5.45;;;;;;;;;;5070290;28;20216;-41
2021/04/20 05:21:12;;;;;;;8.43;5.55;;;;;;;;;;5064652;28;20179;-41
2021/04/20 05:23:38;;;;;;;11.82;5.68;;;;;;;;;;5074312;28;20551;-41
2021/04/20 05:26:04;;;;;;;10.18;5.80;;;;;;;;;;5071700;28;20189;-41
2021/04/20 05:28:30;;;;;;;9.95;5.80;;;;;;;;;;5054555;28;20623;-42
2021/04/20 05:30:56;;;;;;;12.27;6.03;;;;;;;;;;5053842;28;20183;-42
2021/04/20 05:33:22;;;;;;;11.35;5.95;;;;;;;;;;5054666;28;20463;-42
2021/04/20 05:35:48;;;;;;;11.82;5.80;;;;;;;;;;5059490;28;20262;-41
2021/04/20 05:38:14;;;;;;;11.55;5.82;;;;;;;;;;5063316;28;20344;-42
2021/04/20 05:40:42;;;;;;;11.65;6.72;;;;;;;;;;5063640;28;20192;-42
2021/04/20 05:43:08;;;;;;;15.40;6.20;;;;;;;;;;5077379;28;20174;-41
2021/04/20 05:45:34;;;;;;;13.48;6.47;;;;;;;;;;5077583;28;20170;-41
2021/04/20 05:48:00;;;;;;;10.20;5.93;;;;;;;;;;5072274;28;20179;-41
2021/04/20 05:50:28;;;;;;;11.43;6.55;;;;;;;;;;5068904;28;20263;-41
2021/04/20 05:52:54;;;;;;;9.65;6.63;;;;;;;;;;5077910;28;20393;-42
2021/04/20 05:55:20;;;;;;;10.07;6.55;;;;;;;;;;5065055;28;20183;-41
2021/04/20 05:57:50;;;;;;;14.15;6.65;;;;;;;;;;5058099;28;20581;-41
2021/04/20 06:00:17;;;;;;;11.07;6.13;;;;;;;;;;5067548;28;20245;-41
2021/04/20 06:02:45;;;;;;;8.85;6.03;;;;;;;;;;5070989;28;20171;-41
2021/04/20 06:05:15;;;;;;;11.02;6.32;;;;;;;;;;5059966;28;20179;-41
2021/04/20 06:07:44;;;;;;;10.32;6.53;;;;;;;;;;5062850;28;20681;-41
2021/04/20 06:10:11;;;;;;;11.82;5.97;;;;;;;;;;5057876;28;20175;-41
2021/04/20 06:12:38;;;;;;;8.43;5.90;;;;;;;;;;5057322;28;20438;-41
2021/04/20 06:15:05;;;;;;;11.20;6.43;;;;;;;;;;5078017;28;20253;-41
2021/04/20 06:17:33;;;;;;;9.80;6.55;;;;;;;;;;5063105;28;20204;-41
2021/04/20 06:19:59;;;;;;;9.95;5.95;;;;;;;;;;5060649;28;20637;-41
2021/04/20 06:22:26;;;;;;;10.45;6.28;;;;;;;;;;5073437;28;20269;-41
2021/04/20 06:24:52;;;;;;;12.73;7.10;;;;;;;;;;5077576;28;20158;-41
2021/04/20 06:27:18;;;;;;;10.02;6.55;;;;;;;;;;5068333;28;20207;-41
2021/04/20 06:29:44;;;;;;;9.50;6.10;;;;;;;;;;5065724;28;20194;-41
2021/04/20 06:32:12;;;;;;;8.35;6.30;;;;;;;;;;5076951;28;20166;-41
2021/04/20 06:34:38;;;;;;;8.80;6.28;;;;;;;;;;5075938;28;20175;-41
2021/04/20 06:37:06;;;;;;;8.77;5.93;;;;;;;;;;5066302;28;20475;-41
2021/04/20 06:39:33;;;;;;;6.78;5.75;;;;;;;;;;5076296;28;20247;-41
2021/04/20 06:42:00;;;;;;;7.72;5.80;;;;;;;;;;5072206;28;20189;-41
2021/04/20 06:44:31;;;;;;;6.95;5.38;;;;;;;;;;5072862;28;20166;-41
2021/04/20 06:46:59;;;;;;;8.65;5.82;;;;;;;;;;5076724;28;20191;-41
2021/04/20 06:49:31;;;;;;;7.35;5.55;;;;;;;;;;5068487;28;20187;-41
2021/04/20 06:51:58;;;;;;;7.63;6.40;;;;;;;;;;5057305;28;20214;-41
2021/04/20 06:54:30;;;;;;;7.18;5.15;;;;;;;;;;5057138;28;20472;-41
2021/04/20 06:57:15;;;;;;;10.63;5.60;;;;;;;;;;5069393;28;20178;-41
2021/04/20 06:59:41;;;;;;;9.02;5.88;;;;;;;;;;5076535;28;20234;-41
2021/04/20 07:02:12;;;;;;;7.82;6.20;;;;;;;;;;5056566;28;20542;-41
2021/04/20 07:04:44;;;;;;;8.70;5.78;;;;;;;;;;5067092;28;20185;-42
2021/04/20 07:07:15;;;;;;;6.78;5.05;;;;;;;;;;5057133;28;20179;-41
2021/04/20 07:09:45;;;;;;;7.68;5.55;;;;;;;;;;5056810;28;20198;-41
2021/04/20 07:12:13;;;;;;;6.93;5.72;;;;;;;;;;5057691;28;20179;-41
2021/04/20 07:14:49;;;;;;;8.55;5.70;;;;;;;;;;5068334;28;20179;-41
2021/04/20 07:17:34;;;;;;;8.10;5.22;;;;;;;;;;5056638;28;20179;-41
2021/04/20 07:20:06;;;;;;;7.30;5.90;;;;;;;;;;5060386;28;20222;-41
2021/04/20 07:22:43;;;;;;;8.10;6.15;;;;;;;;;;5063830;28;20550;-41
2021/04/20 07:25:25;;;;;;;9.60;6.22;;;;;;;;;;5067658;28;20489;-41
2021/04/20 07:27:58;;;;;;;8.73;6.43;;;;;;;;;;5076365;28;20203;-41
2021/04/20 07:30:33;;;;;;;10.82;6.45;;;;;;;;;;5056446;28;20167;-41
2021/04/20 07:33:17;;;;;;;8.73;6.78;;;;;;;;;;5065266;28;20174;-41
2021/04/20 07:35:48;;;;;;;7.10;6.38;;;;;;;;;;5064949;28;20179;-41
2021/04/20 07:38:18;;;;;;;8.05;6.90;;;;;;;;;;5056368;28;20203;-41
2021/04/20 07:40:49;;;;;;;8.27;6.60;;;;;;;;;;5058531;28;20187;-41
2021/04/20 07:43:16;;;;;;;6.68;5.80;;;;;;;;;;5073641;28;20541;-41
2021/04/20 07:45:44;;;;;;;7.72;6.40;;;;;;;;;;5070882;28;20176;-41
2021/04/20 07:48:30;;;;;;;7.25;6.38;;;;;;;;;;5055271;28;20183;-41
2021/04/20 07:50:58;;;;;;;9.52;6.20;;;;;;;;;;5059506;28;20171;-41
2021/04/20 07:53:36;;;;;;;8.73;6.82;;;;;;;;;;5072262;28;20182;-41
2021/04/20 07:56:10;;;;;;;9.25;7.00;;;;;;;;;;5073582;28;20578;-42
2021/04/20 07:58:40;;;;;;;7.32;6.47;;;;;;;;;;5072191;28;20576;-41
2021/04/20 08:01:20;;;;;;;7.28;6.57;;;;;;;;;;5064147;28;20175;-41
2021/04/20 08:03:53;;;;;;;7.40;6.10;;;;;;;;;;5063439;28;20228;-41
2021/04/20 08:06:26;;;;;;;6.80;6.05;;;;;;;;;;5067624;28;20167;-41
2021/04/20 08:09:01;;;;;;;7.18;6.25;;;;;;;;;;5057124;28;20261;-41
2021/04/20 08:11:47;;;;;;;7.30;6.60;;;;;;;;;;5054974;28;20210;-41
2021/04/20 08:14:23;;;;;;;8.13;6.50;;;;;;;;;;5055967;28;20186;-41
2021/04/20 08:17:15;;;;;;;6.15;5.50;;;;;;;;;;5055476;28;20585;-41
2021/04/20 08:19:49;;;;;;;7.45;5.93;;;;;;;;;;5060894;28;20220;-41
2021/04/20 08:22:16;;;;;;;7.57;5.90;;;;;;;;;;5064041;28;20174;-41
2021/04/20 08:24:48;;;;;;;5.80;5.20;;;;;;;;;;5075241;28;20277;-41
2021/04/20 08:27:23;;;;;;;6.13;5.53;;;;;;;;;;5062144;28;20174;-41
2021/04/20 08:29:52;;;;;;;7.57;5.65;;;;;;;;;;5064413;28;20200;-41
2021/04/20 08:32:20;;;;;;;6.70;6.00;;;;;;;;;;5062070;28;20505;-41
2021/04/20 08:34:52;;;;;;;7.05;6.35;;;;;;;;;;5056468;28;20190;-41
2021/04/20 08:37:26;;;;;;;7.25;5.80;;;;;;;;;;5055311;28;20179;-41
2021/04/20 08:40:08;;;;;;;7.88;5.72;;;;;;;;;;5054995;28;20213;-41
2021/04/20 08:42:43;;;;;;;7.45;5.60;;;;;;;;;;5054858;28;20249;-41
2021/04/20 08:45:15;;;;;;;6.72;6.00;;;;;;;;;;5075125;28;20171;-41
2021/04/20 08:48:02;;;;;;;6.78;5.18;;;;;;;;;;5074888;28;20236;-41
2021/04/20 08:50:30;;;;;;;7.03;5.25;;;;;;;;;;5058921;28;20479;-41
2021/04/20 08:53:15;;;;;;;6.43;5.57;;;;;;;;;;5070130;28;20189;-41
2021/04/20 08:55:49;;;;;;;7.20;5.38;;;;;;;;;;5074307;28;20174;-41
2021/04/20 08:58:34;;;;;;;8.20;5.97;;;;;;;;;;5059638;28;20213;-41
2021/04/20 09:01:00;;;;;;;5.95;5.30;;;;;;;;;;5072714;28;20226;-41
2021/04/20 09:03:32;;;;;;;8.52;5.95;;;;;;;;;;5074884;28;20550;-41
2021/04/20 09:06:00;;;;;;;5.85;5.05;;;;;;;;;;5062361;28;20225;-41
2021/04/20 09:08:26;;;;;;;6.50;4.95;;;;;;;;;;5073605;28;20236;-41
2021/04/20 09:10:57;;;;;;;6.00;5.40;;;;;;;;;;5070862;28;20182;-41
2021/04/20 09:13:26;;;;;;;6.60;5.70;;;;;;;;;;5054255;28;20316;-41
2021/04/20 09:15:58;;;;;;;6.35;5.38;;;;;;;;;;5053761;28;20175;-40
2021/04/20 09:18:33;;;;;;;7.95;5.22;;;;;;;;;;5056874;28;20202;-40
2021/04/20 09:21:08;;;;;;;9.68;5.30;;;;;;;;;;5067428;28;20218;-41
2021/04/20 09:23:34;;;;;;;7.53;5.75;;;;;;;;;;5054584;28;20158;-42
2021/04/20 09:26:19;;;;;;;10.30;5.40;;;;;;;;;;5065829;28;20185;-42
2021/04/20 09:28:55;;;;;;;6.22;5.30;;;;;;;;;;5059676;28;20190;-41
2021/04/20 09:31:22;;;;;;;11.10;5.97;;;;;;;;;;5054347;28;20178;-41
2021/04/20 09:33:48;;;;;;;8.13;5.72;;;;;;;;;;5063282;28;20568;-43
2021/04/20 09:36:15;;;;;;;11.52;6.00;;;;;;;;;;5069760;28;20182;-42
2021/04/20 09:38:42;;;;;;;14.05;7.45;;;;;;;;;;5061295;28;20213;-41
2021/04/20 09:41:10;;;;;;;14.48;7.72;;;;;;;;;;5072489;28;20198;-41
2021/04/20 09:43:54;;;;;;;12.88;7.68;;;;;;;;;;5065582;28;20245;-41
2021/04/20 09:46:43;;;;;;;11.40;7.03;;;;;;;;;;5062225;28;20257;-39
2021/04/20 09:49:12;;;;;;;12.32;7.43;;;;;;;;;;5063144;28;20225;-41
2021/04/20 09:51:49;;;;;;;11.32;7.22;;;;;;;;;;5057293;28;20289;-42
2021/04/20 09:54:21;;;;;;;16.67;8.07;;;;;;;;;;5070872;28;20207;-42
2021/04/20 09:56:49;;;;;;;20.55;7.97;;;;;;;;;;5061185;28;20554;-46
2021/04/20 09:59:39;;;;;;;18.45;8.35;;;;;;;;;;5072818;28;20198;-42
2021/04/20 10:02:18;;;;;;;15.68;7.65;;;;;;;;;;5068395;28;20194;-45
2021/04/20 10:05:10;;;;;;;18.13;7.80;;;;;;;;;;5065938;28;20213;-45
2021/04/20 10:07:59;;;;;;;14.95;7.88;;;;;;;;;;5053114;28;20266;-43
2021/04/20 10:10:43;;;;;;;13.65;7.30;;;;;;;;;;5054110;28;20171;-41
2021/04/20 10:13:28;;;;;;;14.77;9.27;;;;;;;;;;5056210;28;20569;-41
2021/04/20 10:16:05;;;;;;;19.48;8.48;;;;;;;;;;5064568;28;20251;-41
2021/04/20 10:18:46;;;;;;;15.93;8.20;;;;;;;;;;5069175;28;20210;-41
2021/04/20 10:21:31;;;;;;;16.25;8.57;;;;;;;;;;5061594;28;20186;-41
2021/04/20 10:24:01;;;;;;;13.15;8.45;;;;;;;;;;5077810;28;20166;-41
2021/04/20 10:26:34;;;;;;;14.68;7.93;;;;;;;;;;5067917;28;20262;-41
2021/04/20 10:29:05;;;;;;;15.43;8.13;;;;;;;;;;5063383;28;20210;-41
2021/04/20 10:31:51;;;;;;;13.77;7.55;;;;;;;;;;5063362;28;20515;-41
2021/04/20 10:34:17;;;;;;;13.68;7.72;;;;;;;;;;5048392;28;20562;-41
2021/04/20 10:36:48;;;;;;;12.07;7.65;;;;;;;;;;5068707;28;20229;-41
2021/04/20 10:39:14;;;;;;;18.08;7.75;;;;;;;;;;5057223;28;20578;-42
2021/04/20 10:41:40;;;;;;;14.70;7.43;;;;;;;;;;5068754;28;20578;-42
2021/04/20 10:44:12;;;;;;;13.02;7.47;;;;;;;;;;5077223;28;20239;-42
2021/04/20 10:46:38;;;;;;;12.43;7.00;;;;;;;;;;5061336;28;20202;-42
2021/04/20 10:49:05;;;;;;;15.43;7.10;;;;;;;;;;5058891;28;20175;-42
2021/04/20 10:51:36;;;;;;;11.50;6.90;;;;;;;;;;5063902;28;20257;-41
2021/04/20 10:54:03;;;;;;;12.48;6.93;;;;;;;;;;5076182;28;20185;-41
2021/04/20 10:56:30;;;;;;;8.95;6.30;;;;;;;;;;5076839;28;20174;-41
2021/04/20 10:58:58;;;;;;;15.25;7.32;;;;;;;;;;5073699;28;20198;-40
2021/04/20 11:01:27;;;;;;;14.10;6.95;;;;;;;;;;5073549;28;20163;-43
2021/04/20 11:03:53;;;;;;;10.20;6.68;;;;;;;;;;5075743;28;20189;-39
2021/04/20 11:06:38;;;;;;;10.85;6.63;;;;;;;;;;5076740;28;20183;-42
2021/04/20 11:09:04;;;;;;;10.38;6.35;;;;;;;;;;5076923;28;20170;-40
2021/04/20 11:11:30;;;;;;;9.50;6.82;;;;;;;;;;5076185;28;20265;-40
2021/04/20 11:13:56;;;;;;;9.18;6.25;;;;;;;;;;5076846;28;20170;-40
2021/04/20 11:16:25;;;;;;;14.73;6.22;;;;;;;;;;5076897;28;20178;-40
2021/04/20 11:18:54;;;;;;;11.68;6.40;;;;;;;;;;5065538;28;20489;-40
2021/04/20 11:21:25;;;;;;;9.85;6.75;;;;;;;;;;5068476;28;20174;-41
2021/04/20 11:23:59;;;;;;;10.40;6.18;;;;;;;;;;5076441;28;20197;-40
2021/04/20 11:26:30;;;;;;;14.82;5.93;;;;;;;;;;5068294;28;20170;-40
2021/04/20 11:28:59;;;;;;;9.88;6.40;;;;;;;;;;5063747;28;20494;-41
2021/04/20 11:31:25;;;;;;;9.43;5.80;;;;;;;;;;5067160;28;20178;-41
2021/04/20 11:34:06;;;;;;;13.25;6.25;;;;;;;;;;5064799;28;20584;-43
2021/04/20 11:36:35;;;;;;;13.10;5.75;;;;;;;;;;5065058;28;20562;-41
2021/04/20 11:39:04;;;;;;;7.88;5.50;;;;;;;;;;5071223;28;20231;-42
2021/04/20 11:41:31;;;;;;;13.32;5.82;;;;;;;;;;5065131;28;20215;-44
2021/04/20 11:43:59;;;;;;;9.07;6.03;;;;;;;;;;5076237;28;20216;-42
2021/04/20 11:46:26;;;;;;;16.02;6.50;;;;;;;;;;5066924;28;20178;-42
2021/04/20 11:48:55;;;;;;;13.35;6.72;;;;;;;;;;5067477;28;20182;-42
2021/04/20 11:51:22;;;;;;;9.77;5.45;;;;;;;;;;5072928;28;20316;-41
2021/04/20 11:53:50;;;;;;;12.57;5.93;;;;;;;;;;5075483;28;20170;-40
2021/04/20 11:56:16;;;;;;;15.38;7.43;;;;;;;;;;5075892;28;20177;-42
2021/04/20 11:58:43;;;;;;;16.80;8.82;;;;;;;;;;5076301;28;20294;-42
2021/04/20 12:01:15;;;;;;;25.70;9.05;;;;;;;;;;5075552;28;20167;-42
2021/04/20 12:03:54;;;;;;;11.88;7.72;;;;;;;;;;5075330;28;20171;-42
2021/04/20 12:06:20;;;;;;;15.38;7.82;;;;;;;;;;5076051;28;20163;-42
2021/04/20 12:08:46;;;;;;;10.23;6.95;;;;;;;;;;5060140;28;20194;-42
2021/04/20 12:11:13;;;;;;;16.25;6.85;;;;;;;;;;5055251;28;20183;-42
2021/04/20 12:13:44;;;;;;;10.85;6.78;;;;;;;;;;5055556;28;20171;-42
2021/04/20 12:16:10;;;;;;;8.60;6.15;;;;;;;;;;5055799;28;20217;-42
2021/04/20 12:18:38;;;;;;;10.80;6.05;;;;;;;;;;5055804;28;20203;-42
2021/04/20 12:21:13;;;;;;;11.50;6.72;;;;;;;;;;5054420;28;20569;-42
2021/04/20 12:23:41;;;;;;;11.48;6.38;;;;;;;;;;5066271;28;20180;-42
2021/04/20 12:26:08;;;;;;;8.10;6.43;;;;;;;;;;5069431;28;20204;-42
2021/04/20 12:28:39;;;;;;;10.75;6.30;;;;;;;;;;5076180;28;20182;-42
2021/04/20 12:31:05;;;;;;;8.50;5.80;;;;;;;;;;5070308;28;20182;-42
2021/04/20 12:33:34;;;;;;;8.93;6.15;;;;;;;;;;5061649;28;20575;-42
2021/04/20 12:36:00;;;;;;;10.32;6.10;;;;;;;;;;5056590;28;20233;-42
2021/04/20 12:38:30;;;;;;;9.70;6.18;;;;;;;;;;5055884;28;20202;-42
2021/04/20 12:40:58;;;;;;;8.57;6.10;;;;;;;;;;5055118;28;20180;-42
2021/04/20 12:43:25;;;;;;;8.90;5.63;;;;;;;;;;5065109;28;20175;-42
2021/04/20 12:45:52;;;;;;;10.90;6.25;;;;;;;;;;5074005;28;20190;-42
2021/04/20 12:48:19;;;;;;;8.35;5.75;;;;;;;;;;5072263;28;20261;-42
2021/04/20 12:50:47;;;;;;;10.77;6.38;;;;;;;;;;5074334;28;20223;-42
2021/04/20 12:53:15;;;;;;;8.88;6.00;;;;;;;;;;5061333;28;20201;-42
2021/04/20 12:55:42;;;;;;;6.63;5.65;;;;;;;;;;5073092;28;20221;-42
2021/04/20 12:58:11;;;;;;;7.07;5.38;;;;;;;;;;5069246;28;20707;-42
2021/04/20 13:00:37;;;;;;;11.25;6.07;;;;;;;;;;5073846;28;20183;-42
2021/04/20 13:03:04;;;;;;;7.43;5.30;;;;;;;;;;5068731;28;20288;-42
2021/04/20 13:05:32;;;;;;;6.68;5.80;;;;;;;;;;5073875;28;20182;-42
2021/04/20 13:08:05;;;;;;;6.75;5.07;;;;;;;;;;5073220;28;20304;-42
2021/04/20 13:10:32;;;;;;;8.63;5.82;;;;;;;;;;5073587;28;20170;-42
2021/04/20 13:12:59;;;;;;;6.57;5.57;;;;;;;;;;5061594;28;20179;-42
2021/04/20 13:15:26;;;;;;;7.57;5.47;;;;;;;;;;5055402;28;20190;-42
2021/04/20 13:17:54;;;;;;;7.78;5.45;;;;;;;;;;5057811;28;20198;-42
2021/04/20 13:20:22;;;;;;;6.70;5.43;;;;;;;;;;5063140;28;20554;-42
2021/04/20 13:22:48;;;;;;;5.57;5.03;;;;;;;;;;5063419;28;20598;-42
2021/04/20 13:25:14;;;;;;;6.43;4.93;;;;;;;;;;5059660;28;20270;-42
2021/04/20 13:27:45;;;;;;;7.53;5.18;;;;;;;;;;5057637;28;20182;-42
2021/04/20 13:30:17;;;;;;;8.45;4.78;;;;;;;;;;5061085;28;20182;-42
2021/04/20 13:32:44;;;;;;;9.68;4.93;;;;;;;;;;5060800;28;20206;-42
2021/04/20 13:35:15;;;;;;;7.03;4.28;;;;;;;;;;5055572;28;20187;-42
2021/04/20 13:37:42;;;;;;;6.35;4.88;;;;;;;;;;5054327;28;20265;-42
2021/04/20 13:40:15;;;;;;;7.60;4.90;;;;;;;;;;5070351;28;20252;-42
2021/04/20 13:42:43;;;;;;;6.05;4.50;;;;;;;;;;5062558;28;20175;-42
2021/04/20 13:45:12;;;;;;;6.40;4.35;;;;;;;;;;5074484;28;20170;-42
2021/04/20 13:47:42;;;;;;;6.70;4.05;;;;;;;;;;5061038;28;20553;-42
2021/04/20 13:50:09;;;;;;;6.72;4.13;;;;;;;;;;5070109;28;20194;-42
2021/04/20 13:52:45;;;;;;;5.55;4.68;;;;;;;;;;5056163;28;20847;-42
2021/04/20 13:55:14;;;;;;;9.50;5.13;;;;;;;;;;5058252;28;20187;-41
2021/04/20 13:57:42;;;;;;;4.68;4.22;;;;;;;;;;5064991;28;20178;-42
2021/04/20 14:00:12;;;;;;;5.65;4.40;;;;;;;;;;5058458;28;20206;-42
2021/04/20 14:02:43;;;;;;;6.63;4.85;;;;;;;;;;5060590;28;20435;-42
2021/04/20 14:05:09;;;;;;;5.72;4.40;;;;;;;;;;5059211;28;20551;-42
2021/04/20 14:07:37;;;;;;;4.47;4.03;;;;;;;;;;5061514;28;20178;-42
2021/04/20 14:10:05;;;;;;;5.32;4.28;;;;;;;;;;5071581;28;20182;-42
2021/04/20 14:12:36;;;;;;;4.95;4.13;;;;;;;;;;5069192;28;20225;-42
2021/04/20 14:15:06;;;;;;;6.15;4.53;;;;;;;;;;5071734;28;20417;-42
2021/04/20 14:17:32;;;;;;;8.65;4.70;;;;;;;;;;5060266;28;20280;-42
2021/04/20 14:20:00;;;;;;;6.13;4.10;;;;;;;;;;5058432;28;20691;-42
2021/04/20 14:22:26;;;;;;;5.65;3.78;;;;;;;;;;5068075;28;20580;-42
2021/04/20 14:24:56;;;;;;;5.63;4.50;;;;;;;;;;5064359;28;20183;-42
2021/04/20 14:27:25;;;;;;;4.80;4.22;;;;;;;;;;5067196;28;20195;-42
2021/04/20 14:29:51;;;;;;;8.82;4.32;;;;;;;;;;5076676;28;20507;-42
2021/04/20 14:32:18;;;;;;;6.75;4.18;;;;;;;;;;5059924;28;20507;-42
2021/04/20 14:34:49;;;;;;;9.43;4.40;;;;;;;;;;5057253;28;20579;-42
2021/04/20 14:37:18;;;;;;;5.82;4.65;;;;;;;;;;5068972;28;20488;-42
2021/04/20 14:39:44;;;;;;;6.95;4.47;;;;;;;;;;5061832;28;20260;-42
2021/04/20 14:42:13;;;;;;;6.47;4.32;;;;;;;;;;5062118;28;20175;-42
2021/04/20 14:44:40;;;;;;;6.43;4.63;;;;;;;;;;5071401;28;20182;-42
2021/04/20 14:47:08;;;;;;;6.93;4.43;;;;;;;;;;5076718;28;20167;-41
2021/04/20 14:49:35;;;;;;;9.95;4.78;;;;;;;;;;5077368;28;20482;-41
2021/04/20 14:52:04;;;;;;;8.98;4.15;;;;;;;;;;5074871;28;20205;-41
2021/04/20 14:54:32;;;;;;;5.18;4.35;;;;;;;;;;5070948;28;20187;-41